Time;durP1;ratioP1;P1;durP2;ratioP2;P2;SDS_P1;SDS_P2;PMS_P1;PMS_P2;Temp;Humidity;BMP_temperature;BMP_pressure;BME280_temperature;BME280_humidity;BME280_pressure;Samples;Min_cycle;Max_cycle;Signal;HPM_P1;HPM_P2
2024/02/11 00:01:05;;;;;;;15.73;12.00;;;;;;;8.70;100.00;96612.72;5073067;28;20384;-46
2024/02/11 00:03:31;;;;;;;11.35;8.55;;;;;;;8.51;100.00;96606.94;5072935;28;20036;-46
2024/02/11 00:05:58;;;;;;;10.45;7.25;;;;;;;8.37;100.00;96601.22;5072936;28;20021;-46
2024/02/11 00:08:24;;;;;;;13.50;6.75;;;;;;;8.47;100.00;96612.88;5071572;28;20024;-48
2024/02/11 00:10:53;;;;;;;12.32;4.60;;;;;;;8.80;100.00;96605.00;5072843;28;20021;-48
2024/02/11 00:13:20;;;;;;;7.82;5.63;;;;;;;8.80;100.00;96609.44;5071448;28;20414;-48
2024/02/11 00:15:46;;;;;;;9.65;5.10;;;;;;;8.75;100.00;96610.19;5072374;28;20713;-48
2024/02/11 00:18:12;;;;;;;11.25;4.38;;;;;;;8.76;100.00;96605.72;5071368;28;20126;-48
2024/02/11 00:20:39;;;;;;;9.43;5.00;;;;;;;9.05;100.00;96608.22;5071591;28;20098;-48
2024/02/11 00:23:05;;;;;;;12.80;10.77;;;;;;;9.12;100.00;96596.53;5071253;28;20040;-48
2024/02/11 00:25:31;;;;;;;8.63;5.38;;;;;;;8.97;100.00;96606.78;5054625;28;20020;-48
2024/02/11 00:27:59;;;;;;;9.20;6.55;;;;;;;8.85;100.00;96606.91;5054584;28;20121;-48
2024/02/11 00:30:27;;;;;;;59.03;53.70;;;;;;;8.55;100.00;96610.66;5072443;28;20511;-48
2024/02/11 00:32:56;;;;;;;56.00;50.60;;;;;;;8.43;100.00;96609.97;5072453;28;20025;-48
2024/02/11 00:35:25;;;;;;;48.38;43.47;;;;;;;8.39;100.00;96606.19;5072265;28;20055;-48
2024/02/11 00:37:51;;;;;;;63.28;56.83;;;;;;;8.35;100.00;96607.69;5071368;28;20391;-48
2024/02/11 00:40:18;;;;;;;12.10;10.18;;;;;;;8.29;100.00;96613.84;5071179;28;20032;-48
2024/02/11 00:42:45;;;;;;;73.82;66.53;;;;;;;8.41;100.00;96612.03;5072253;28;20406;-48
2024/02/11 00:45:14;;;;;;;20.23;15.48;;;;;;;8.68;100.00;96613.97;5071153;28;20545;-48
2024/02/11 00:47:43;;;;;;;23.15;19.40;;;;;;;8.91;100.00;96619.00;5070961;28;20031;-48
2024/02/11 00:50:13;;;;;;;16.15;12.43;;;;;;;9.03;100.00;96626.75;5054188;28;20032;-48
2024/02/11 00:52:44;;;;;;;17.83;12.32;;;;;;;9.07;100.00;96621.84;5070881;28;20556;-48
2024/02/11 00:55:14;;;;;;;17.02;15.23;;;;;;;9.08;100.00;96626.06;5087250;28;20028;-48
2024/02/11 00:57:41;;;;;;;10.48;8.63;;;;;;;9.23;100.00;96615.00;5071932;28;20043;-48
2024/02/11 01:00:11;;;;;;;12.32;6.10;;;;;;;9.31;100.00;96615.34;5071925;28;20441;-48
2024/02/11 01:02:38;;;;;;;9.32;6.25;;;;;;;9.36;100.00;96612.03;5071387;28;20103;-48
2024/02/11 01:05:04;;;;;;;7.00;4.75;;;;;;;9.17;100.00;96614.91;5070621;28;20399;-48
2024/02/11 01:07:32;;;;;;;6.60;4.47;;;;;;;8.86;100.00;96615.56;5072136;28;20432;-48
2024/02/11 01:09:57;;;;;;;7.22;4.20;;;;;;;8.63;100.00;96616.50;5070510;28;20108;-48
2024/02/11 01:12:24;;;;;;;6.35;3.70;;;;;;;8.53;100.00;96615.34;5071802;28;20162;-48
2024/02/11 01:14:50;;;;;;;8.13;4.68;;;;;;;8.38;100.00;96617.69;5071396;28;20016;-49
2024/02/11 01:17:19;;;;;;;6.15;4.10;;;;;;;8.33;100.00;96618.41;5071690;28;20032;-48
2024/02/11 01:19:46;;;;;;;12.88;8.55;;;;;;;8.20;100.00;96626.53;5070588;28;20036;-48
2024/02/11 01:22:13;;;;;;;20.70;17.40;;;;;;;8.17;100.00;96624.41;5070400;28;20023;-48
2024/02/11 01:24:39;;;;;;;7.38;5.18;;;;;;;8.31;100.00;96625.69;5072042;28;20569;-48
2024/02/11 01:27:04;;;;;;;13.98;10.90;;;;;;;8.35;100.00;96628.59;5071897;28;20028;-48
2024/02/11 01:29:30;;;;;;;46.63;42.15;;;;;;;8.51;100.00;96627.84;5071603;28;20490;-48
2024/02/11 01:31:58;;;;;;;11.05;9.52;;;;;;;8.55;100.00;96630.78;5053709;28;20037;-48
2024/02/11 01:34:24;;;;;;;22.25;19.00;;;;;;;8.58;100.00;96633.69;5070285;28;20028;-48
2024/02/11 01:36:49;;;;;;;17.08;11.27;;;;;;;8.56;100.00;96635.75;5071427;28;20401;-48
2024/02/11 01:39:15;;;;;;;41.65;37.30;;;;;;;8.51;100.00;96640.13;5071594;28;20032;-48
2024/02/11 01:41:41;;;;;;;95.30;85.82;;;;;;;8.50;100.00;96634.09;5071507;28;20031;-48
2024/02/11 01:44:07;;;;;;;44.38;38.33;;;;;;;8.76;100.00;96635.28;5070556;28;20441;-48
2024/02/11 01:46:34;;;;;;;128.63;115.43;;;;;;;9.08;100.00;96629.47;5070158;28;20090;-48
2024/02/11 01:49:04;;;;;;;27.88;23.17;;;;;;;9.28;100.00;96625.53;5070518;28;20116;-48
2024/02/11 01:51:35;;;;;;;70.65;63.50;;;;;;;9.43;100.00;96624.91;5071422;28;20521;-48
2024/02/11 01:54:04;;;;;;;29.23;26.42;;;;;;;9.57;100.00;96634.78;5071540;28;20028;-48
2024/02/11 01:56:32;;;;;;;9.65;6.63;;;;;;;9.55;100.00;96636.06;5071623;28;20506;-48
2024/02/11 01:58:57;;;;;;;7.78;4.65;;;;;;;9.47;100.00;96631.25;5070207;28;20070;-48
2024/02/11 02:01:27;;;;;;;9.55;5.00;;;;;;;9.15;100.00;96626.66;5071240;28;20020;-48
2024/02/11 02:03:54;;;;;;;9.57;5.82;;;;;;;8.89;100.00;96628.91;5071346;28;20043;-48
2024/02/11 02:06:22;;;;;;;7.35;4.88;;;;;;;8.71;100.00;96631.78;5071255;28;20016;-48
2024/02/11 02:08:48;;;;;;;10.27;6.07;;;;;;;8.58;100.00;96633.69;5071551;28;20032;-48
2024/02/11 02:11:15;;;;;;;9.77;5.63;;;;;;;8.56;100.00;96638.38;5069911;28;20020;-48
2024/02/11 02:13:42;;;;;;;7.22;5.10;;;;;;;8.64;100.00;96639.81;5070196;28;20036;-48
2024/02/11 02:16:07;;;;;;;7.43;5.68;;;;;;;8.77;100.00;96636.06;5073588;28;20037;-48
2024/02/11 02:18:34;;;;;;;9.20;6.35;;;;;;;8.89;100.00;96630.75;5057052;28;20051;-48
2024/02/11 02:21:04;;;;;;;9.15;5.05;;;;;;;8.99;100.00;96636.94;5074826;28;20029;-48
2024/02/11 02:23:30;;;;;;;7.35;5.20;;;;;;;9.05;100.00;96644.84;5073860;28;20021;-48
2024/02/11 02:25:57;;;;;;;8.82;5.28;;;;;;;9.04;100.00;96635.44;5075000;28;20398;-48
2024/02/11 02:28:24;;;;;;;11.80;10.68;;;;;;;8.87;100.00;96638.84;5074816;28;20549;-48
2024/02/11 02:30:50;;;;;;;13.70;6.45;;;;;;;8.68;100.00;96633.06;5074750;28;20083;-48
2024/02/11 02:33:15;;;;;;;22.63;20.48;;;;;;;8.74;100.00;96636.56;5073378;28;20028;-48
2024/02/11 02:35:41;;;;;;;21.10;17.20;;;;;;;8.95;100.00;96633.22;5073277;28;20031;-48
2024/02/11 02:38:07;;;;;;;30.10;27.38;;;;;;;9.15;100.00;96635.28;5073628;28;20028;-48
2024/02/11 02:40:33;;;;;;;15.05;11.23;;;;;;;9.42;100.00;96639.03;5073264;28;20465;-48
2024/02/11 02:43:00;;;;;;;11.52;10.32;;;;;;;9.52;100.00;96633.94;5073340;28;20135;-48
2024/02/11 02:45:26;;;;;;;9.20;6.05;;;;;;;9.46;100.00;96627.06;5089919;28;20036;-48
2024/02/11 02:47:54;;;;;;;10.60;7.13;;;;;;;9.33;100.00;96625.59;5074440;28;20024;-48
2024/02/11 02:50:20;;;;;;;14.30;9.15;;;;;;;9.16;100.00;96625.63;5074368;28;20082;-48
2024/02/11 02:52:48;;;;;;;12.68;11.38;;;;;;;8.87;100.00;96635.44;5074322;28;20025;-48
2024/02/11 02:55:14;;;;;;;23.60;21.40;;;;;;;8.79;100.00;96632.22;5074225;28;20016;-48
2024/02/11 02:57:40;;;;;;;10.88;6.55;;;;;;;8.77;100.00;96633.44;5074200;28;20043;-48
2024/02/11 03:00:06;;;;;;;9.57;6.80;;;;;;;8.81;100.00;96639.78;5074160;28;20024;-48
2024/02/11 03:02:34;;;;;;;11.43;9.55;;;;;;;8.82;100.00;96643.22;5074171;28;20081;-48
2024/02/11 03:05:03;;;;;;;6.70;5.53;;;;;;;8.87;100.00;96644.06;5074156;28;20513;-48
2024/02/11 03:07:29;;;;;;;10.38;6.90;;;;;;;8.89;100.00;96643.84;5074156;28;20025;-48
2024/02/11 03:09:55;;;;;;;10.27;9.00;;;;;;;8.92;100.00;96644.16;5072761;28;20380;-48
2024/02/11 03:12:24;;;;;;;12.70;7.38;;;;;;;8.97;100.00;96651.28;5074008;28;20029;-48
2024/02/11 03:14:50;;;;;;;9.15;6.50;;;;;;;9.10;100.00;96637.84;5073715;28;20024;-49
2024/02/11 03:17:16;;;;;;;9.30;6.38;;;;;;;9.28;100.00;96641.25;5072731;28;20491;-48
2024/02/11 03:19:43;;;;;;;10.35;5.88;;;;;;;9.40;100.00;96655.00;5072595;28;20036;-48
2024/02/11 03:22:13;;;;;;;8.52;5.63;;;;;;;9.46;100.00;96646.19;5074134;28;20671;-48
2024/02/11 03:24:40;;;;;;;9.82;6.55;;;;;;;9.47;100.00;96642.50;5072091;28;20040;-48
2024/02/11 03:27:06;;;;;;;10.10;5.63;;;;;;;9.45;100.00;96649.03;5073647;28;20020;-48
2024/02/11 03:29:35;;;;;;;11.38;5.90;;;;;;;9.29;100.00;96645.44;5072402;28;20037;-48
2024/02/11 03:32:01;;;;;;;9.57;6.18;;;;;;;9.08;100.00;96642.53;5072426;28;20044;-48
2024/02/11 03:34:27;;;;;;;7.53;6.25;;;;;;;8.84;100.00;96649.78;5073513;28;20489;-48
2024/02/11 03:36:53;;;;;;;11.77;10.30;;;;;;;8.63;100.00;96653.13;5072166;28;20461;-48
2024/02/11 03:39:22;;;;;;;9.38;8.45;;;;;;;8.56;100.00;96654.06;5073456;28;20060;-48
2024/02/11 03:41:49;;;;;;;13.90;10.55;;;;;;;8.60;100.00;96655.19;5073347;28;20124;-48
2024/02/11 03:44:14;;;;;;;10.88;6.28;;;;;;;8.57;100.00;96660.91;5073419;28;20024;-48
2024/02/11 03:46:40;;;;;;;8.82;5.75;;;;;;;8.53;100.00;96657.16;5072267;28;20101;-48
2024/02/11 03:49:06;;;;;;;7.72;5.85;;;;;;;8.73;100.00;96659.31;5071935;28;20032;-48
2024/02/11 03:51:32;;;;;;;7.00;5.95;;;;;;;8.82;100.00;96662.31;5073276;28;20020;-48
2024/02/11 03:54:02;;;;;;;16.95;10.85;;;;;;;8.86;100.00;96667.88;5072223;28;20044;-48
2024/02/11 03:56:28;;;;;;;9.77;7.60;;;;;;;8.92;100.00;96670.31;5073039;28;20025;-48
2024/02/11 03:58:55;;;;;;;9.38;5.93;;;;;;;9.07;100.00;96684.63;5071707;28;20529;-48
2024/02/11 04:01:21;;;;;;;12.45;6.38;;;;;;;9.06;100.00;96683.84;5073064;28;20028;-48
2024/02/11 04:03:47;;;;;;;20.40;17.92;;;;;;;9.20;100.00;96679.09;5071848;28;20043;-46
2024/02/11 04:06:14;;;;;;;7.93;6.40;;;;;;;9.39;100.00;96680.38;5071575;28;20107;-46
2024/02/11 04:08:43;;;;;;;10.65;6.22;;;;;;;9.30;100.00;96681.84;5072824;28;20486;-46
2024/02/11 04:11:12;;;;;;;8.05;5.20;;;;;;;9.17;100.00;96685.56;5072797;28;20024;-46
2024/02/11 04:13:38;;;;;;;25.90;23.45;;;;;;;9.11;100.00;96683.91;5072815;28;20023;-46
2024/02/11 04:16:15;;;;;;;12.27;7.45;;;;;;;9.22;100.00;96678.84;5071107;28;20055;-46
2024/02/11 04:18:47;;;;;;;11.27;8.75;;;;;;;9.17;100.00;96682.94;5071589;28;20043;-46
2024/02/11 04:21:15;;;;;;;21.80;12.07;;;;;;;9.11;100.00;96672.66;5072667;28;20036;-46
2024/02/11 04:23:41;;;;;;;12.63;7.25;;;;;;;9.35;100.00;96668.81;5072645;28;20023;-46
2024/02/11 04:26:09;;;;;;;17.42;15.50;;;;;;;9.50;100.00;96670.06;5072505;28;20093;-46
2024/02/11 04:28:36;;;;;;;11.23;8.45;;;;;;;9.67;100.00;96669.97;5072444;28;20025;-46
2024/02/11 04:31:09;;;;;;;10.65;6.15;;;;;;;10.07;100.00;96672.25;5071195;28;20398;-46
2024/02/11 04:33:40;;;;;;;8.85;5.75;;;;;;;10.57;100.00;96665.94;5072439;28;20028;-46
2024/02/11 04:36:15;;;;;;;104.55;13.68;;;;;;;10.88;100.00;96666.16;5071988;28;20056;-46
2024/02/11 04:38:41;;;;;;;;;;;;;;;10.85;100.00;96661.44;5072911;28;20399;-46
2024/02/11 04:41:06;;;;;;;;;;;;;;;10.67;100.00;96667.84;5071424;28;19915;-46
2024/02/11 04:43:35;;;;;;;11.20;8.13;;;;;;;10.92;100.00;96676.97;5072252;28;20413;-46
2024/02/11 04:46:04;;;;;;;12.27;6.32;;;;;;;11.18;100.00;96686.56;5072182;28;20116;-46
2024/02/11 04:48:33;;;;;;;8.77;6.30;;;;;;;11.37;100.00;96684.34;5072239;28;20032;-46
2024/02/11 04:50:59;;;;;;;7.38;5.85;;;;;;;11.50;100.00;96684.91;5070882;28;20033;-46
2024/02/11 04:53:27;;;;;;;8.10;6.40;;;;;;;11.48;100.00;96679.91;5072071;28;20085;-46
2024/02/11 04:55:53;;;;;;;12.77;9.60;;;;;;;11.46;100.00;96673.34;5072065;28;20021;-46
2024/02/11 04:58:19;;;;;;;9.00;5.82;;;;;;;11.16;100.00;96680.78;5072076;28;20021;-46
2024/02/11 05:00:53;;;;;;;10.55;6.43;;;;;;;10.57;100.00;96681.69;5072049;28;20511;-46
2024/02/11 05:03:19;;;;;;;10.40;5.90;;;;;;;10.26;100.00;96685.03;5072033;28;20028;-46
2024/02/11 05:05:49;;;;;;;8.38;6.75;;;;;;;10.00;100.00;96684.78;5070597;28;20111;-46
2024/02/11 05:08:19;;;;;;;8.95;6.28;;;;;;;9.98;100.00;96694.72;5071917;28;20395;-46
2024/02/11 05:10:48;;;;;;;11.80;6.72;;;;;;;10.04;100.00;96700.78;5071808;28;20063;-46
2024/02/11 05:13:14;;;;;;;17.08;8.55;;;;;;;10.16;100.00;96701.44;5070483;28;20085;-46
2024/02/11 05:15:42;;;;;;;9.38;6.57;;;;;;;10.21;100.00;96706.75;5070062;28;20119;-46
2024/02/11 05:18:11;;;;;;;9.35;6.13;;;;;;;10.13;100.00;96715.06;5071823;28;20159;-46
2024/02/11 05:20:38;;;;;;;13.55;7.15;;;;;;;10.11;100.00;96711.88;5071775;28;20051;-46
2024/02/11 05:23:11;;;;;;;13.45;6.50;;;;;;;10.07;100.00;96719.44;5070454;28;20036;-46
2024/02/11 05:25:43;;;;;;;8.70;6.03;;;;;;;10.09;100.00;96713.97;5071804;28;20036;-46
2024/02/11 05:28:12;;;;;;;11.77;7.05;;;;;;;10.07;100.00;96719.44;5071710;28;20021;-46
2024/02/11 05:30:42;;;;;;;10.75;7.00;;;;;;;9.96;100.00;96715.91;5071606;28;20078;-46
2024/02/11 05:33:09;;;;;;;9.90;6.30;;;;;;;9.87;100.00;96720.00;5071582;28;20031;-46
2024/02/11 05:35:37;;;;;;;10.20;6.20;;;;;;;9.96;100.00;96717.72;5071643;28;20029;-46
2024/02/11 05:38:06;;;;;;;12.38;7.13;;;;;;;9.98;100.00;96724.31;5071643;28;20043;-46
2024/02/11 05:40:41;;;;;;;14.48;7.75;;;;;;;9.72;100.00;96719.81;5071608;28;20024;-46
2024/02/11 05:43:15;;;;;;;21.10;14.18;;;;;;;9.45;100.00;96730.19;5071528;28;20379;-46
2024/02/11 05:45:41;;;;;;;10.07;6.80;;;;;;;9.09;100.00;96730.47;5071535;28;20041;-46
2024/02/11 05:48:11;;;;;;;9.07;6.30;;;;;;;8.72;100.00;96732.78;5072617;28;20028;-46
2024/02/11 05:50:41;;;;;;;8.10;5.90;;;;;;;8.63;100.00;96734.16;5074693;28;20501;-46
2024/02/11 05:53:08;;;;;;;11.45;6.35;;;;;;;8.62;100.00;96737.84;5074205;28;20021;-46
2024/02/11 05:55:35;;;;;;;11.18;6.30;;;;;;;8.54;100.00;96737.16;5075391;28;20512;-46
2024/02/11 05:58:01;;;;;;;9.50;6.13;;;;;;;8.56;100.00;96740.34;5075434;28;20040;-46
2024/02/11 06:00:31;;;;;;;29.33;21.45;;;;;;;8.68;100.00;96740.28;5057447;28;20032;-46
2024/02/11 06:02:58;;;;;;;8.52;6.47;;;;;;;8.91;100.00;96749.81;5074033;28;20578;-46
2024/02/11 06:05:25;;;;;;;16.35;14.70;;;;;;;8.90;100.00;96743.00;5073993;28;20029;-46
2024/02/11 06:07:59;;;;;;;22.40;18.63;;;;;;;8.87;100.00;96756.53;5075282;28;20520;-46
2024/02/11 06:10:26;;;;;;;19.63;17.77;;;;;;;8.87;100.00;96758.38;5073888;28;20036;-46
2024/02/11 06:12:57;;;;;;;11.82;8.65;;;;;;;9.02;100.00;96756.00;5073854;28;20048;-46
2024/02/11 06:15:24;;;;;;;13.68;6.97;;;;;;;9.20;100.00;96757.59;5074732;28;20040;-46
2024/02/11 06:17:53;;;;;;;19.92;7.10;;;;;;;9.24;100.00;96761.31;5075121;28;20555;-46
2024/02/11 06:20:21;;;;;;;9.98;7.15;;;;;;;9.13;100.00;96749.88;5074997;28;20021;-45
2024/02/11 06:22:54;;;;;;;9.15;6.47;;;;;;;8.95;100.00;96750.13;5074967;28;20565;-45
2024/02/11 06:25:20;;;;;;;14.10;9.23;;;;;;;8.76;100.00;96770.50;5074870;28;20024;-46
2024/02/11 06:27:48;;;;;;;9.68;7.72;;;;;;;8.69;100.00;96777.69;5074806;28;20033;-46
2024/02/11 06:30:14;;;;;;;10.98;7.57;;;;;;;8.73;100.00;96781.41;5074739;28;20099;-46
2024/02/11 06:32:41;;;;;;;35.17;28.92;;;;;;;8.87;100.00;96784.53;5073396;28;20029;-46
2024/02/11 06:35:09;;;;;;;31.85;24.60;;;;;;;8.96;100.00;96770.03;5073397;28;20107;-46
2024/02/11 06:37:39;;;;;;;10.70;8.23;;;;;;;8.88;100.00;96771.22;5090164;28;20035;-46
2024/02/11 06:40:10;;;;;;;13.02;6.68;;;;;;;8.92;100.00;96777.56;5074607;28;20023;-46
2024/02/11 06:42:37;;;;;;;14.05;9.40;;;;;;;9.18;100.00;96780.59;5074585;28;20035;-46
2024/02/11 06:45:06;;;;;;;13.27;8.77;;;;;;;9.40;100.00;96778.06;5056553;28;20111;-46
2024/02/11 06:47:35;;;;;;;10.15;6.88;;;;;;;9.31;100.00;96775.03;5074738;28;20029;-46
2024/02/11 06:50:05;;;;;;;11.60;8.02;;;;;;;9.28;100.00;96777.34;5073231;28;20025;-46
2024/02/11 06:52:34;;;;;;;9.40;6.63;;;;;;;9.22;100.00;96786.16;5074430;28;20525;-46
2024/02/11 06:55:01;;;;;;;9.07;6.43;;;;;;;9.26;100.00;96798.53;5074339;28;20494;-46
2024/02/11 06:57:29;;;;;;;10.40;5.70;;;;;;;9.26;100.00;96813.44;5074245;28;20088;-46
2024/02/11 06:59:56;;;;;;;7.22;5.00;;;;;;;9.58;100.00;96811.84;5073364;28;20012;-46
2024/02/11 07:02:22;;;;;;;7.25;4.85;;;;;;;9.78;100.00;96813.94;5074167;28;20035;-46
2024/02/11 07:04:48;;;;;;;8.30;5.43;;;;;;;9.85;100.00;96824.25;5074254;28;20020;-46
2024/02/11 07:07:13;;;;;;;8.35;5.88;;;;;;;9.75;100.00;96832.75;5072814;28;20028;-46
2024/02/11 07:09:42;;;;;;;7.95;5.10;;;;;;;9.77;100.00;96835.91;5074134;28;20024;-46
2024/02/11 07:12:09;;;;;;;13.60;9.27;;;;;;;9.60;100.00;96835.16;5073970;28;20016;-46
2024/02/11 07:14:37;;;;;;;13.93;9.02;;;;;;;9.36;100.00;96845.78;5074098;28;20028;-46
2024/02/11 07:17:03;;;;;;;13.65;7.03;;;;;;;9.32;100.00;96854.38;5073710;28;20503;-46
2024/02/11 07:19:30;;;;;;;9.30;6.72;;;;;;;9.21;100.00;96858.63;5073932;28;20025;-46
2024/02/11 07:21:56;;;;;;;11.70;7.63;;;;;;;9.11;100.00;96856.63;5073803;28;20025;-46
2024/02/11 07:24:22;;;;;;;17.63;15.77;;;;;;;9.21;100.00;96861.25;5073871;28;20032;-46
2024/02/11 07:26:48;;;;;;;11.80;7.25;;;;;;;9.33;100.00;96869.81;5073763;28;20047;-46
2024/02/11 07:29:14;;;;;;;10.68;6.80;;;;;;;9.34;100.00;96871.41;5072379;28;20494;-45
2024/02/11 07:31:41;;;;;;;8.88;7.72;;;;;;;9.34;100.00;96874.03;5073658;28;20036;-46
2024/02/11 07:34:08;;;;;;;17.35;14.52;;;;;;;9.40;100.00;96880.16;5073624;28;20023;-46
2024/02/11 07:36:33;;;;;;;17.75;9.90;;;;;;;9.53;100.00;96886.91;5073483;28;20097;-45
2024/02/11 07:38:59;;;;;;;9.25;7.35;;;;;;;9.58;100.00;96889.59;5072259;28;20028;-46
2024/02/11 07:41:25;;;;;;;20.00;12.07;;;;;;;9.60;100.00;96901.44;5072166;28;20112;-46
2024/02/11 07:43:53;;;;;;;36.92;30.27;;;;;;;9.82;100.00;96886.81;5073445;28;20441;-46
2024/02/11 07:46:21;;;;;;;19.23;12.55;;;;;;;9.87;100.00;96892.91;5073370;28;20048;-46
2024/02/11 07:48:48;;;;;;;17.77;10.57;;;;;;;10.05;100.00;96889.25;5073393;28;20029;-46
2024/02/11 07:51:14;;;;;;;14.57;9.15;;;;;;;10.20;100.00;96899.13;5073500;28;20031;-46
2024/02/11 07:53:41;;;;;;;10.02;8.35;;;;;;;10.22;100.00;96904.13;5055272;28;20449;-46
2024/02/11 07:56:19;;;;;;;8.93;5.45;;;;;;;10.20;100.00;96907.81;5073107;28;20020;-46
2024/02/11 07:58:45;;;;;;;8.25;5.63;;;;;;;10.17;100.00;96910.91;5072042;28;20028;-46
2024/02/11 08:01:10;;;;;;;10.98;8.25;;;;;;;10.28;100.00;96916.28;5071757;28;20398;-46
2024/02/11 08:03:37;;;;;;;9.63;6.57;;;;;;;10.37;100.00;96913.03;5072995;28;20024;-46
2024/02/11 08:06:09;;;;;;;8.40;4.57;;;;;;;10.44;100.00;96920.72;5073029;28;20032;-46
2024/02/11 08:08:36;;;;;;;9.90;5.45;;;;;;;10.56;100.00;96921.41;5072922;28;20072;-46
2024/02/11 08:11:02;;;;;;;9.25;4.82;;;;;;;10.58;100.00;96924.59;5071683;28;20069;-46
2024/02/11 08:13:28;;;;;;;12.20;4.53;;;;;;;10.71;100.00;96930.50;5054826;28;20025;-46
2024/02/11 08:15:54;;;;;;;7.18;5.05;;;;;;;10.95;100.00;96926.59;5072358;28;20052;-46
2024/02/11 08:18:21;;;;;;;6.63;5.07;;;;;;;11.16;100.00;96929.41;5072659;28;20020;-46
2024/02/11 08:20:46;;;;;;;6.43;4.20;;;;;;;11.40;100.00;96932.53;5071394;28;20059;-46
2024/02/11 08:23:12;;;;;;;7.38;4.53;;;;;;;11.45;100.00;96931.78;5071289;28;20068;-46
2024/02/11 08:25:38;;;;;;;7.20;4.70;;;;;;;11.55;100.00;96926.63;5071264;28;20039;-46
2024/02/11 08:28:04;;;;;;;9.98;5.80;;;;;;;11.49;100.00;96932.88;5072593;28;20028;-46
2024/02/11 08:30:29;;;;;;;10.50;6.38;;;;;;;11.37;100.00;96931.22;5071190;28;20024;-46
2024/02/11 08:32:57;;;;;;;13.50;11.23;;;;;;;11.39;100.00;96930.97;5072517;28;20048;-46
2024/02/11 08:35:22;;;;;;;11.43;7.85;;;;;;;11.58;100.00;96936.66;5072269;28;20028;-46
2024/02/11 08:37:48;;;;;;;9.98;6.60;;;;;;;11.84;100.00;96939.50;5071076;28;20028;-46
2024/02/11 08:40:14;;;;;;;10.65;5.78;;;;;;;12.07;100.00;96938.34;5072520;28;20036;-46
2024/02/11 08:42:41;;;;;;;7.22;5.47;;;;;;;11.99;100.00;96931.72;5071024;28;20025;-46
2024/02/11 08:45:07;;;;;;;10.45;8.10;;;;;;;11.76;100.00;96927.59;5070974;28;20409;-46
2024/02/11 08:47:34;;;;;;;11.52;8.00;;;;;;;11.68;100.00;96928.84;5072209;28;20029;-48
2024/02/11 08:50:01;;;;;;;12.02;7.28;;;;;;;12.00;100.00;96941.22;5072120;28;20040;-49
2024/02/11 08:52:26;;;;;;;8.85;6.07;;;;;;;12.32;100.00;96949.06;5072103;28;20055;-49
2024/02/11 08:54:52;;;;;;;14.48;8.48;;;;;;;12.36;100.00;96949.34;5072100;28;20056;-48
2024/02/11 08:57:22;;;;;;;11.20;9.07;;;;;;;12.17;100.00;96952.38;5071931;28;20502;-48
2024/02/11 08:59:48;;;;;;;13.13;7.95;;;;;;;11.90;100.00;96944.56;5071988;28;20111;-48
2024/02/11 09:02:19;;;;;;;10.57;7.65;;;;;;;11.77;100.00;96958.91;5071922;28;20032;-48
2024/02/11 09:04:44;;;;;;;10.00;7.75;;;;;;;11.78;100.00;96972.81;5072088;28;20486;-48
2024/02/11 09:07:13;;;;;;;11.90;7.43;;;;;;;11.54;100.00;96973.13;5071888;28;20059;-48
2024/02/11 09:09:38;;;;;;;13.80;10.43;;;;;;;11.62;100.00;96965.84;5071898;28;20483;-48
2024/02/11 09:12:05;;;;;;;14.48;11.93;;;;;;;11.66;100.00;96974.81;5070576;28;20456;-48
2024/02/11 09:14:32;;;;;;;25.33;22.23;;;;;;;11.52;100.00;96982.31;5072142;28;20025;-48
2024/02/11 09:16:59;;;;;;;38.20;34.08;;;;;;;11.47;100.00;96984.88;5071559;28;20051;-48
2024/02/11 09:19:27;;;;;;;11.77;8.70;;;;;;;11.61;100.00;96978.19;5071717;28;20013;-48
2024/02/11 09:21:59;;;;;;;14.10;11.75;;;;;;;11.66;100.00;96980.88;5070457;28;20036;-48
2024/02/11 09:24:25;;;;;;;15.50;7.88;;;;;;;11.60;100.00;96981.84;5071370;28;20016;-48
2024/02/11 09:26:51;;;;;;;23.00;19.38;;;;;;;11.67;100.00;96989.53;5071721;28;20032;-48
2024/02/11 09:29:18;;;;;;;12.57;7.18;;;;;;;11.84;100.00;96994.69;5071761;28;20048;-48
2024/02/11 09:31:44;;;;;;;7.18;5.53;;;;;;;11.94;100.00;96984.28;5071713;28;20032;-48
2024/02/11 09:34:11;;;;;;;8.60;5.72;;;;;;;11.93;100.00;96982.69;5070369;28;20027;-48
2024/02/11 09:36:38;;;;;;;13.65;6.53;;;;;;;11.75;100.00;96986.44;5071613;28;20379;-48
2024/02/11 09:39:05;;;;;;;8.70;5.70;;;;;;;11.73;100.00;96986.72;5071659;28;20024;-48
2024/02/11 09:41:30;;;;;;;6.93;6.00;;;;;;;11.71;100.00;96991.44;5071627;28;20058;-48
2024/02/11 09:44:02;;;;;;;9.57;5.97;;;;;;;11.75;100.00;96989.06;5070325;28;20024;-48
2024/02/11 09:46:30;;;;;;;10.45;6.55;;;;;;;11.85;100.00;96988.38;5071649;28;20032;-48
2024/02/11 09:48:59;;;;;;;10.80;5.85;;;;;;;12.10;100.00;96995.72;5071519;28;20029;-48
2024/02/11 09:51:26;;;;;;;14.45;10.88;;;;;;;12.26;100.00;97002.66;5071418;28;20025;-48
2024/02/11 09:54:00;;;;;;;33.78;30.27;;;;;;;12.28;100.00;96997.94;5071539;28;20027;-48
2024/02/11 09:56:26;;;;;;;13.02;8.20;;;;;;;12.42;100.00;97005.41;5071387;28;20021;-48
2024/02/11 09:58:52;;;;;;;9.18;6.53;;;;;;;12.46;100.00;97003.88;5071446;28;20024;-48
2024/02/11 10:01:19;;;;;;;22.70;20.40;;;;;;;12.51;100.00;96996.78;5071414;28;20482;-48
2024/02/11 10:03:49;;;;;;;9.65;6.72;;;;;;;12.77;100.00;97002.19;5071301;28;20028;-48
2024/02/11 10:06:20;;;;;;;9.68;8.48;;;;;;;13.26;100.00;97012.41;5070058;28;20039;-48
2024/02/11 10:08:46;;;;;;;14.02;9.50;;;;;;;13.64;100.00;97009.63;5071350;28;20029;-48
2024/02/11 10:11:16;;;;;;;27.52;23.92;;;;;;;13.85;100.00;97013.09;5069952;28;20025;-48
2024/02/11 10:13:44;;;;;;;24.05;21.42;;;;;;;13.90;100.00;97021.78;5070137;28;20025;-48
2024/02/11 10:16:11;;;;;;;12.77;8.77;;;;;;;13.91;100.00;97026.00;5069620;28;20553;-46
2024/02/11 10:18:39;;;;;;;17.80;15.02;;;;;;;13.95;100.00;97027.06;5071146;28;20052;-46
2024/02/11 10:21:08;;;;;;;10.00;7.45;;;;;;;14.08;100.00;97031.00;5071134;28;20020;-46
2024/02/11 10:23:41;;;;;;;12.07;7.80;;;;;;;14.39;100.00;97025.75;5069912;28;20032;-46
2024/02/11 10:26:09;;;;;;;8.23;6.85;;;;;;;14.52;100.00;97033.09;5071177;28;20402;-46
2024/02/11 10:28:37;;;;;;;13.68;9.05;;;;;;;14.65;100.00;97033.63;5071135;28;20025;-46
2024/02/11 10:31:04;;;;;;;20.48;18.00;;;;;;;14.91;100.00;97031.72;5071075;28;20032;-47
2024/02/11 10:33:30;;;;;;;52.67;43.15;;;;;;;15.12;100.00;97035.88;5069851;28;20063;-47
2024/02/11 10:35:56;;;;;;;12.07;9.27;;;;;;;15.22;100.00;97043.00;5071878;28;20056;-46
2024/02/11 10:38:22;;;;;;;15.10;11.65;;;;;;;15.27;100.00;97042.16;5073458;28;20078;-47
2024/02/11 10:40:48;;;;;;;34.10;30.58;;;;;;;15.25;100.00;97046.94;5074678;28;20024;-47
2024/02/11 10:43:15;;;;;;;13.05;9.48;;;;;;;15.37;100.00;97045.59;5074553;28;20030;-47
2024/02/11 10:45:41;;;;;;;11.80;7.85;;;;;;;15.45;100.00;97046.84;5074509;28;20493;-47
2024/02/11 10:48:07;;;;;;;15.00;11.57;;;;;;;15.41;100.00;97045.03;5074463;28;20020;-47
2024/02/11 10:50:33;;;;;;;10.48;8.15;;;;;;;15.91;100.00;97024.66;5074726;28;20017;-47
2024/02/11 10:53:04;;;;;;;9.20;5.55;;;;;;;16.55;100.00;97020.94;5074489;28;20025;-47
2024/02/11 10:55:36;;;;;;;9.63;5.70;;;;;;;17.25;100.00;97018.91;5074374;28;20020;-47
2024/02/11 10:58:05;;;;;;;12.43;8.07;;;;;;;17.19;100.00;97026.13;5074333;28;20040;-47
2024/02/11 11:00:34;;;;;;;11.57;7.60;;;;;;;16.96;100.00;97028.50;5072980;28;20020;-47
2024/02/11 11:03:04;;;;;;;11.20;6.57;;;;;;;16.89;100.00;97033.34;5074263;28;20036;-47
2024/02/11 11:05:35;;;;;;;15.68;10.70;;;;;;;16.62;100.00;97027.78;5074577;28;20058;-47
2024/02/11 11:08:05;;;;;;;9.18;6.60;;;;;;;17.12;100.00;97030.97;5073091;28;20418;-47
2024/02/11 11:10:36;;;;;;;8.93;6.38;;;;;;;18.05;100.00;97020.72;5072846;28;20070;-47
2024/02/11 11:13:02;;;;;;;8.02;6.03;;;;;;;18.89;100.00;97030.44;5074018;28;20020;-45
2024/02/11 11:15:31;;;;;;;9.52;7.68;;;;;;;19.35;100.00;97032.19;5073640;28;20052;-45
2024/02/11 11:18:00;;;;;;;11.10;6.68;;;;;;;20.49;100.00;97011.81;5073989;28;20048;-45
2024/02/11 11:20:26;;;;;;;5.75;3.25;;;;;;;21.70;100.00;97015.94;5073905;28;20110;-45
2024/02/11 11:22:58;;;;;;;4.25;3.00;;;;;;;23.23;95.15;97009.31;5073901;28;20028;-45
2024/02/11 11:25:31;;;;;;;6.35;3.70;;;;;;;23.16;91.63;97011.69;5073906;28;20029;-45